aviador You're here:

GMMZ Decoded Metar

OUARZAZATE in MOROCCO
Report Time2017-10-18 20:00:00
UTC Time2017-10-18 20:27:52
Flight Rules vfr VFR
Wind290° at 13 kt
W.Decomp.*RWY 30: 13.0 kt HW 1.1 kt LCW
W.Rank290° ranks 1
Current wind is above 290° avg. (10.2)
Visibility9999 m
Phenomena:N/A
Clouds:Scattered 040 Hf
Few CB 050 Hf
Expected CloudBase > 6,000 ft AGL from Temp-Dew spread
CeilingNone
Temp20°C (ISA +12)
Dew Point05°C (38% RH)
AAT14.2°C
QNH1020 hPa
Density Alt5,072 ft
Elevation3,740 ft
Report Wrong Elevation
Raw Report
GMMZ 182000Z 29013KT 9999 SCT040 FEW050CB 20/05 Q1020 NOSIG=

Extra information for GMMZ:More info

Metar Taf Metar & Taf Last 4 Metars F.Rules Stats Wind Profile Meteogram Temp Stats Airport Information Weather charts Add Link Nearby VenuesMetar ALERT Operation Metar Decoded Social comments